sensor_id;sensor_type;location;lat;lon;timestamp;P1;durP1;ratioP1;P2;durP2;ratioP2
31594;SDS011;18200;48.726;8.892;2022-08-02T00:02:40;4.53;;;3.35;;
31594;SDS011;18200;48.726;8.892;2022-08-02T00:06:41;5.70;;;3.30;;
31594;SDS011;18200;48.726;8.892;2022-08-02T00:10:42;7.10;;;3.50;;
31594;SDS011;18200;48.726;8.892;2022-08-02T00:14:42;5.32;;;3.42;;
31594;SDS011;18200;48.726;8.892;2022-08-02T00:18:43;6.07;;;3.53;;
31594;SDS011;18200;48.726;8.892;2022-08-02T00:22:43;5.22;;;3.42;;
31594;SDS011;18200;48.726;8.892;2022-08-02T00:26:44;6.18;;;3.13;;
31594;SDS011;18200;48.726;8.892;2022-08-02T00:30:44;4.25;;;2.70;;
31594;SDS011;18200;48.726;8.892;2022-08-02T00:34:44;3.80;;;2.70;;
31594;SDS011;18200;48.726;8.892;2022-08-02T00:38:45;3.95;;;2.70;;
31594;SDS011;18200;48.726;8.892;2022-08-02T00:42:46;4.07;;;2.70;;
31594;SDS011;18200;48.726;8.892;2022-08-02T00:47:00;3.20;;;2.60;;
31594;SDS011;18200;48.726;8.892;2022-08-02T00:51:00;4.75;;;3.40;;
31594;SDS011;18200;48.726;8.892;2022-08-02T00:55:01;5.32;;;3.10;;
31594;SDS011;18200;48.726;8.892;2022-08-02T00:59:02;3.55;;;2.75;;
31594;SDS011;18200;48.726;8.892;2022-08-02T01:03:03;5.60;;;3.05;;
31594;SDS011;18200;48.726;8.892;2022-08-02T01:07:04;4.28;;;3.25;;
31594;SDS011;18200;48.726;8.892;2022-08-02T01:11:04;4.90;;;3.42;;
31594;SDS011;18200;48.726;8.892;2022-08-02T01:15:07;3.65;;;2.70;;
31594;SDS011;18200;48.726;8.892;2022-08-02T01:19:52;6.07;;;2.93;;
31594;SDS011;18200;48.726;8.892;2022-08-02T01:28:35;6.05;;;3.40;;
31594;SDS011;18200;48.726;8.892;2022-08-02T01:32:41;5.30;;;3.20;;
31594;SDS011;18200;48.726;8.892;2022-08-02T01:36:46;4.47;;;2.97;;
31594;SDS011;18200;48.726;8.892;2022-08-02T01:40:51;4.22;;;2.42;;
31594;SDS011;18200;48.726;8.892;2022-08-02T01:44:53;3.88;;;2.72;;
31594;SDS011;18200;48.726;8.892;2022-08-02T01:48:56;4.68;;;2.88;;
31594;SDS011;18200;48.726;8.892;2022-08-02T01:53:03;5.00;;;2.67;;
31594;SDS011;18200;48.726;8.892;2022-08-02T01:57:06;6.50;;;3.25;;
31594;SDS011;18200;48.726;8.892;2022-08-02T02:05:13;6.10;;;2.83;;
31594;SDS011;18200;48.726;8.892;2022-08-02T02:09:17;6.80;;;2.90;;
31594;SDS011;18200;48.726;8.892;2022-08-02T02:13:19;3.40;;;2.78;;
31594;SDS011;18200;48.726;8.892;2022-08-02T02:17:20;3.35;;;2.17;;
31594;SDS011;18200;48.726;8.892;2022-08-02T02:21:21;2.70;;;2.30;;
31594;SDS011;18200;48.726;8.892;2022-08-02T02:25:22;3.30;;;2.47;;
31594;SDS011;18200;48.726;8.892;2022-08-02T02:29:25;3.03;;;2.53;;
31594;SDS011;18200;48.726;8.892;2022-08-02T02:33:30;6.28;;;3.00;;
31594;SDS011;18200;48.726;8.892;2022-08-02T02:37:32;4.60;;;2.73;;
31594;SDS011;18200;48.726;8.892;2022-08-02T02:41:35;3.42;;;2.45;;
31594;SDS011;18200;48.726;8.892;2022-08-02T02:45:37;4.47;;;2.80;;
31594;SDS011;18200;48.726;8.892;2022-08-02T02:49:39;4.65;;;2.65;;
31594;SDS011;18200;48.726;8.892;2022-08-02T02:53:42;3.58;;;2.78;;
31594;SDS011;18200;48.726;8.892;2022-08-02T02:57:44;4.55;;;2.95;;
31594;SDS011;18200;48.726;8.892;2022-08-02T03:01:44;3.20;;;2.60;;
31594;SDS011;18200;48.726;8.892;2022-08-02T03:05:45;4.47;;;3.30;;
31594;SDS011;18200;48.726;8.892;2022-08-02T03:09:45;3.55;;;2.67;;
31594;SDS011;18200;48.726;8.892;2022-08-02T03:13:46;4.20;;;2.60;;
31594;SDS011;18200;48.726;8.892;2022-08-02T03:17:47;3.25;;;2.90;;
31594;SDS011;18200;48.726;8.892;2022-08-02T03:21:48;6.65;;;2.78;;
31594;SDS011;18200;48.726;8.892;2022-08-02T03:25:49;6.32;;;2.83;;
31594;SDS011;18200;48.726;8.892;2022-08-02T03:29:49;4.07;;;3.08;;
31594;SDS011;18200;48.726;8.892;2022-08-02T03:33:49;5.60;;;2.95;;
31594;SDS011;18200;48.726;8.892;2022-08-02T03:37:51;5.03;;;2.95;;
31594;SDS011;18200;48.726;8.892;2022-08-02T03:41:53;4.32;;;3.10;;
31594;SDS011;18200;48.726;8.892;2022-08-02T03:45:53;3.50;;;3.20;;
31594;SDS011;18200;48.726;8.892;2022-08-02T03:49:56;4.50;;;2.75;;
31594;SDS011;18200;48.726;8.892;2022-08-02T03:53:56;4.38;;;2.80;;
31594;SDS011;18200;48.726;8.892;2022-08-02T03:57:57;7.35;;;2.65;;
31594;SDS011;18200;48.726;8.892;2022-08-02T04:01:58;5.03;;;2.70;;
31594;SDS011;18200;48.726;8.892;2022-08-02T04:05:58;3.00;;;2.58;;
31594;SDS011;18200;48.726;8.892;2022-08-02T04:09:58;4.88;;;2.53;;
31594;SDS011;18200;48.726;8.892;2022-08-02T04:14:04;4.15;;;2.63;;
31594;SDS011;18200;48.726;8.892;2022-08-02T04:18:07;5.75;;;2.53;;
31594;SDS011;18200;48.726;8.892;2022-08-02T04:22:15;4.47;;;2.78;;
31594;SDS011;18200;48.726;8.892;2022-08-02T04:26:17;3.05;;;2.35;;
31594;SDS011;18200;48.726;8.892;2022-08-02T04:30:18;3.15;;;2.42;;
31594;SDS011;18200;48.726;8.892;2022-08-02T04:34:20;4.03;;;2.60;;
31594;SDS011;18200;48.726;8.892;2022-08-02T04:38:20;3.92;;;2.85;;
31594;SDS011;18200;48.726;8.892;2022-08-02T04:42:21;5.10;;;2.60;;
31594;SDS011;18200;48.726;8.892;2022-08-02T04:46:22;3.28;;;2.50;;
31594;SDS011;18200;48.726;8.892;2022-08-02T04:50:23;3.08;;;2.00;;
31594;SDS011;18200;48.726;8.892;2022-08-02T04:54:23;4.38;;;2.72;;
31594;SDS011;18200;48.726;8.892;2022-08-02T04:58:25;4.15;;;3.05;;
31594;SDS011;18200;48.726;8.892;2022-08-02T05:02:25;4.80;;;3.05;;
31594;SDS011;18200;48.726;8.892;2022-08-02T05:06:25;5.05;;;3.03;;
31594;SDS011;18200;48.726;8.892;2022-08-02T05:10:26;4.53;;;2.75;;
31594;SDS011;18200;48.726;8.892;2022-08-02T05:14:26;3.67;;;2.63;;
31594;SDS011;18200;48.726;8.892;2022-08-02T05:18:27;4.20;;;2.83;;
31594;SDS011;18200;48.726;8.892;2022-08-02T05:22:30;4.72;;;3.10;;
31594;SDS011;18200;48.726;8.892;2022-08-02T05:26:30;2.80;;;2.42;;
31594;SDS011;18200;48.726;8.892;2022-08-02T05:30:31;5.72;;;3.10;;
31594;SDS011;18200;48.726;8.892;2022-08-02T05:34:31;3.97;;;3.08;;
31594;SDS011;18200;48.726;8.892;2022-08-02T05:38:31;2.72;;;2.33;;
31594;SDS011;18200;48.726;8.892;2022-08-02T05:42:32;6.18;;;2.75;;
31594;SDS011;18200;48.726;8.892;2022-08-02T05:46:32;4.72;;;2.50;;
31594;SDS011;18200;48.726;8.892;2022-08-02T05:50:33;3.30;;;2.85;;
31594;SDS011;18200;48.726;8.892;2022-08-02T05:54:41;5.47;;;2.58;;
31594;SDS011;18200;48.726;8.892;2022-08-02T05:58:49;3.03;;;2.70;;
31594;SDS011;18200;48.726;8.892;2022-08-02T06:07:24;3.10;;;2.38;;
31594;SDS011;18200;48.726;8.892;2022-08-02T06:11:30;4.35;;;2.40;;
31594;SDS011;18200;48.726;8.892;2022-08-02T06:15:35;3.72;;;2.67;;
31594;SDS011;18200;48.726;8.892;2022-08-02T06:19:39;4.35;;;2.90;;
31594;SDS011;18200;48.726;8.892;2022-08-02T06:23:41;3.35;;;2.90;;
31594;SDS011;18200;48.726;8.892;2022-08-02T06:27:42;3.92;;;2.55;;
31594;SDS011;18200;48.726;8.892;2022-08-02T06:31:42;4.85;;;2.47;;
31594;SDS011;18200;48.726;8.892;2022-08-02T06:36:03;4.07;;;3.03;;
31594;SDS011;18200;48.726;8.892;2022-08-02T06:44:11;4.05;;;3.00;;
31594;SDS011;18200;48.726;8.892;2022-08-02T06:48:11;11.85;;;3.72;;
31594;SDS011;18200;48.726;8.892;2022-08-02T06:52:12;5.35;;;3.63;;
31594;SDS011;18200;48.726;8.892;2022-08-02T06:56:12;4.65;;;3.60;;
31594;SDS011;18200;48.726;8.892;2022-08-02T07:00:13;6.13;;;3.50;;
31594;SDS011;18200;48.726;8.892;2022-08-02T07:04:14;3.83;;;3.00;;
31594;SDS011;18200;48.726;8.892;2022-08-02T07:08:14;5.78;;;3.53;;
31594;SDS011;18200;48.726;8.892;2022-08-02T07:12:15;5.75;;;3.75;;
31594;SDS011;18200;48.726;8.892;2022-08-02T07:16:16;5.65;;;3.35;;
31594;SDS011;18200;48.726;8.892;2022-08-02T07:20:16;4.63;;;3.70;;
31594;SDS011;18200;48.726;8.892;2022-08-02T07:24:16;5.32;;;4.13;;
31594;SDS011;18200;48.726;8.892;2022-08-02T07:28:16;7.30;;;3.92;;
31594;SDS011;18200;48.726;8.892;2022-08-02T07:32:17;5.05;;;3.95;;
31594;SDS011;18200;48.726;8.892;2022-08-02T07:36:20;5.97;;;3.95;;
31594;SDS011;18200;48.726;8.892;2022-08-02T07:40:21;8.52;;;4.50;;
31594;SDS011;18200;48.726;8.892;2022-08-02T07:44:22;5.95;;;4.90;;
31594;SDS011;18200;48.726;8.892;2022-08-02T07:48:22;10.13;;;4.47;;
31594;SDS011;18200;48.726;8.892;2022-08-02T07:52:23;7.10;;;5.63;;
31594;SDS011;18200;48.726;8.892;2022-08-02T07:56:23;11.20;;;6.35;;
31594;SDS011;18200;48.726;8.892;2022-08-02T08:00:23;5.88;;;4.75;;
31594;SDS011;18200;48.726;8.892;2022-08-02T08:04:24;7.25;;;5.10;;
31594;SDS011;18200;48.726;8.892;2022-08-02T08:08:24;8.88;;;4.80;;
31594;SDS011;18200;48.726;8.892;2022-08-02T08:12:24;7.15;;;5.53;;
31594;SDS011;18200;48.726;8.892;2022-08-02T08:16:25;10.18;;;4.85;;
31594;SDS011;18200;48.726;8.892;2022-08-02T08:20:28;7.97;;;4.65;;
31594;SDS011;18200;48.726;8.892;2022-08-02T08:24:28;5.70;;;4.63;;
31594;SDS011;18200;48.726;8.892;2022-08-02T08:28:28;4.95;;;4.45;;
31594;SDS011;18200;48.726;8.892;2022-08-02T08:32:29;7.25;;;5.03;;
31594;SDS011;18200;48.726;8.892;2022-08-02T08:36:29;7.70;;;4.28;;
31594;SDS011;18200;48.726;8.892;2022-08-02T08:40:30;8.52;;;4.32;;
31594;SDS011;18200;48.726;8.892;2022-08-02T08:44:30;9.48;;;4.55;;
31594;SDS011;18200;48.726;8.892;2022-08-02T08:48:32;6.07;;;4.55;;
31594;SDS011;18200;48.726;8.892;2022-08-02T08:57:06;8.82;;;4.85;;
31594;SDS011;18200;48.726;8.892;2022-08-02T09:01:08;6.70;;;4.40;;
31594;SDS011;18200;48.726;8.892;2022-08-02T09:05:09;7.43;;;4.57;;
31594;SDS011;18200;48.726;8.892;2022-08-02T09:09:11;5.85;;;4.47;;
31594;SDS011;18200;48.726;8.892;2022-08-02T09:17:22;5.65;;;4.38;;
31594;SDS011;18200;48.726;8.892;2022-08-02T09:21:22;9.03;;;4.90;;
31594;SDS011;18200;48.726;8.892;2022-08-02T09:25:23;7.97;;;4.22;;
31594;SDS011;18200;48.726;8.892;2022-08-02T09:29:23;5.45;;;4.60;;
31594;SDS011;18200;48.726;8.892;2022-08-02T09:33:26;7.28;;;4.65;;
31594;SDS011;18200;48.726;8.892;2022-08-02T09:37:27;6.10;;;4.07;;
31594;SDS011;18200;48.726;8.892;2022-08-02T09:41:29;8.52;;;4.15;;
31594;SDS011;18200;48.726;8.892;2022-08-02T09:45:32;10.07;;;4.22;;
31594;SDS011;18200;48.726;8.892;2022-08-02T09:49:36;8.02;;;4.30;;
31594;SDS011;18200;48.726;8.892;2022-08-02T09:53:46;6.18;;;4.57;;
31594;SDS011;18200;48.726;8.892;2022-08-02T09:57:50;9.32;;;4.32;;
31594;SDS011;18200;48.726;8.892;2022-08-02T10:01:52;5.78;;;4.00;;
31594;SDS011;18200;48.726;8.892;2022-08-02T10:05:54;5.30;;;4.05;;
31594;SDS011;18200;48.726;8.892;2022-08-02T10:09:57;5.50;;;3.88;;
31594;SDS011;18200;48.726;8.892;2022-08-02T10:13:57;11.05;;;4.25;;
31594;SDS011;18200;48.726;8.892;2022-08-02T10:17:58;6.70;;;3.90;;
31594;SDS011;18200;48.726;8.892;2022-08-02T10:22:09;8.60;;;4.00;;
31594;SDS011;18200;48.726;8.892;2022-08-02T10:26:14;6.35;;;3.25;;
31594;SDS011;18200;48.726;8.892;2022-08-02T10:30:17;6.15;;;3.20;;
31594;SDS011;18200;48.726;8.892;2022-08-02T10:34:18;7.88;;;3.60;;
31594;SDS011;18200;48.726;8.892;2022-08-02T10:38:20;11.07;;;4.00;;
31594;SDS011;18200;48.726;8.892;2022-08-02T10:46:47;14.38;;;3.50;;
31594;SDS011;18200;48.726;8.892;2022-08-02T10:59:22;6.43;;;3.28;;
31594;SDS011;18200;48.726;8.892;2022-08-02T11:03:39;3.50;;;3.00;;
31594;SDS011;18200;48.726;8.892;2022-08-02T11:07:47;6.53;;;2.92;;
31594;SDS011;18200;48.726;8.892;2022-08-02T11:12:02;5.40;;;3.28;;
31594;SDS011;18200;48.726;8.892;2022-08-02T11:16:07;3.83;;;3.10;;
31594;SDS011;18200;48.726;8.892;2022-08-02T11:24:25;3.43;;;3.13;;
31594;SDS011;18200;48.726;8.892;2022-08-02T11:28:28;3.83;;;3.10;;
31594;SDS011;18200;48.726;8.892;2022-08-02T11:32:29;4.72;;;3.22;;
31594;SDS011;18200;48.726;8.892;2022-08-02T11:36:29;5.93;;;2.97;;
31594;SDS011;18200;48.726;8.892;2022-08-02T11:40:35;7.40;;;2.90;;
31594;SDS011;18200;48.726;8.892;2022-08-02T11:44:39;3.10;;;2.80;;
31594;SDS011;18200;48.726;8.892;2022-08-02T11:48:41;3.50;;;3.20;;
31594;SDS011;18200;48.726;8.892;2022-08-02T11:52:43;6.32;;;3.05;;
31594;SDS011;18200;48.726;8.892;2022-08-02T11:56:43;7.45;;;3.08;;
31594;SDS011;18200;48.726;8.892;2022-08-02T12:00:44;5.93;;;3.25;;
31594;SDS011;18200;48.726;8.892;2022-08-02T12:04:56;4.88;;;3.00;;
31594;SDS011;18200;48.726;8.892;2022-08-02T12:09:04;4.95;;;2.92;;
31594;SDS011;18200;48.726;8.892;2022-08-02T12:13:06;3.88;;;2.90;;
31594;SDS011;18200;48.726;8.892;2022-08-02T12:17:07;5.57;;;3.47;;
31594;SDS011;18200;48.726;8.892;2022-08-02T12:21:26;3.20;;;2.78;;
31594;SDS011;18200;48.726;8.892;2022-08-02T12:25:26;4.68;;;2.72;;
31594;SDS011;18200;48.726;8.892;2022-08-02T12:29:37;2.97;;;2.58;;
31594;SDS011;18200;48.726;8.892;2022-08-02T12:33:49;5.80;;;2.90;;
31594;SDS011;18200;48.726;8.892;2022-08-02T12:37:51;5.90;;;3.50;;
31594;SDS011;18200;48.726;8.892;2022-08-02T12:41:55;8.43;;;3.20;;
31594;SDS011;18200;48.726;8.892;2022-08-02T12:45:56;14.02;;;3.58;;
31594;SDS011;18200;48.726;8.892;2022-08-02T12:54:21;6.70;;;3.10;;
31594;SDS011;18200;48.726;8.892;2022-08-02T12:58:26;5.40;;;3.28;;
31594;SDS011;18200;48.726;8.892;2022-08-02T13:02:27;4.70;;;3.20;;
31594;SDS011;18200;48.726;8.892;2022-08-02T13:06:27;6.70;;;3.25;;
31594;SDS011;18200;48.726;8.892;2022-08-02T13:10:28;3.42;;;3.13;;
31594;SDS011;18200;48.726;8.892;2022-08-02T13:14:28;4.05;;;2.70;;
31594;SDS011;18200;48.726;8.892;2022-08-02T13:18:29;6.07;;;2.72;;
31594;SDS011;18200;48.726;8.892;2022-08-02T13:22:29;3.10;;;2.50;;
31594;SDS011;18200;48.726;8.892;2022-08-02T13:26:29;6.65;;;3.05;;
31594;SDS011;18200;48.726;8.892;2022-08-02T13:30:30;3.70;;;2.97;;
31594;SDS011;18200;48.726;8.892;2022-08-02T13:34:30;11.02;;;2.65;;
31594;SDS011;18200;48.726;8.892;2022-08-02T13:38:31;8.98;;;3.38;;
31594;SDS011;18200;48.726;8.892;2022-08-02T13:42:32;7.38;;;2.95;;
31594;SDS011;18200;48.726;8.892;2022-08-02T13:46:32;6.35;;;2.80;;
31594;SDS011;18200;48.726;8.892;2022-08-02T13:50:34;5.57;;;2.88;;
31594;SDS011;18200;48.726;8.892;2022-08-02T13:54:34;6.28;;;3.00;;
31594;SDS011;18200;48.726;8.892;2022-08-02T13:58:35;6.45;;;3.03;;
31594;SDS011;18200;48.726;8.892;2022-08-02T14:02:35;4.17;;;2.70;;
31594;SDS011;18200;48.726;8.892;2022-08-02T14:06:35;7.65;;;2.83;;
31594;SDS011;18200;48.726;8.892;2022-08-02T14:10:37;11.15;;;3.22;;
31594;SDS011;18200;48.726;8.892;2022-08-02T14:14:38;5.75;;;2.55;;
31594;SDS011;18200;48.726;8.892;2022-08-02T14:18:38;5.45;;;2.83;;
31594;SDS011;18200;48.726;8.892;2022-08-02T14:22:38;7.57;;;3.03;;
31594;SDS011;18200;48.726;8.892;2022-08-02T14:26:39;4.32;;;3.00;;
31594;SDS011;18200;48.726;8.892;2022-08-02T14:30:39;3.38;;;2.50;;
31594;SDS011;18200;48.726;8.892;2022-08-02T14:34:40;3.28;;;2.85;;
31594;SDS011;18200;48.726;8.892;2022-08-02T14:38:41;6.35;;;3.10;;
31594;SDS011;18200;48.726;8.892;2022-08-02T14:42:41;4.97;;;2.58;;
31594;SDS011;18200;48.726;8.892;2022-08-02T14:46:42;4.95;;;3.08;;
31594;SDS011;18200;48.726;8.892;2022-08-02T14:50:42;3.78;;;2.83;;
31594;SDS011;18200;48.726;8.892;2022-08-02T14:54:43;4.22;;;2.53;;
31594;SDS011;18200;48.726;8.892;2022-08-02T14:58:43;2.83;;;2.53;;
31594;SDS011;18200;48.726;8.892;2022-08-02T15:02:44;2.92;;;2.38;;
31594;SDS011;18200;48.726;8.892;2022-08-02T15:06:45;3.28;;;2.80;;
31594;SDS011;18200;48.726;8.892;2022-08-02T15:10:45;8.23;;;2.67;;
31594;SDS011;18200;48.726;8.892;2022-08-02T15:14:46;8.20;;;2.72;;
31594;SDS011;18200;48.726;8.892;2022-08-02T15:18:46;4.20;;;2.45;;
31594;SDS011;18200;48.726;8.892;2022-08-02T15:22:47;5.43;;;2.67;;
31594;SDS011;18200;48.726;8.892;2022-08-02T15:26:47;4.47;;;2.70;;
31594;SDS011;18200;48.726;8.892;2022-08-02T15:30:49;4.85;;;2.60;;
31594;SDS011;18200;48.726;8.892;2022-08-02T15:34:49;7.85;;;2.70;;
31594;SDS011;18200;48.726;8.892;2022-08-02T15:38:50;5.03;;;2.92;;
31594;SDS011;18200;48.726;8.892;2022-08-02T15:42:50;2.40;;;2.10;;
31594;SDS011;18200;48.726;8.892;2022-08-02T15:46:51;4.18;;;2.60;;
31594;SDS011;18200;48.726;8.892;2022-08-02T15:50:53;3.97;;;2.40;;
31594;SDS011;18200;48.726;8.892;2022-08-02T15:54:53;3.92;;;2.47;;
31594;SDS011;18200;48.726;8.892;2022-08-02T15:58:54;2.70;;;2.50;;
31594;SDS011;18200;48.726;8.892;2022-08-02T16:02:55;4.90;;;2.70;;
31594;SDS011;18200;48.726;8.892;2022-08-02T16:06:55;6.00;;;2.58;;
31594;SDS011;18200;48.726;8.892;2022-08-02T16:10:55;4.78;;;2.22;;
31594;SDS011;18200;48.726;8.892;2022-08-02T16:14:56;3.83;;;2.42;;
31594;SDS011;18200;48.726;8.892;2022-08-02T16:18:56;7.22;;;2.95;;
31594;SDS011;18200;48.726;8.892;2022-08-02T16:22:57;3.60;;;2.38;;
31594;SDS011;18200;48.726;8.892;2022-08-02T16:26:57;3.47;;;2.60;;
31594;SDS011;18200;48.726;8.892;2022-08-02T16:30:57;5.07;;;2.65;;
31594;SDS011;18200;48.726;8.892;2022-08-02T16:34:58;5.10;;;2.60;;
31594;SDS011;18200;48.726;8.892;2022-08-02T16:38:58;2.60;;;2.20;;
31594;SDS011;18200;48.726;8.892;2022-08-02T16:42:59;4.50;;;2.40;;
31594;SDS011;18200;48.726;8.892;2022-08-02T16:47:00;5.93;;;2.30;;
31594;SDS011;18200;48.726;8.892;2022-08-02T16:51:00;6.90;;;2.22;;
31594;SDS011;18200;48.726;8.892;2022-08-02T16:55:00;2.80;;;2.40;;
31594;SDS011;18200;48.726;8.892;2022-08-02T16:59:01;5.03;;;2.45;;
31594;SDS011;18200;48.726;8.892;2022-08-02T17:03:01;3.85;;;2.33;;
31594;SDS011;18200;48.726;8.892;2022-08-02T17:07:02;6.68;;;2.30;;
31594;SDS011;18200;48.726;8.892;2022-08-02T17:11:03;5.73;;;2.23;;
31594;SDS011;18200;48.726;8.892;2022-08-02T17:15:04;4.57;;;2.03;;
31594;SDS011;18200;48.726;8.892;2022-08-02T17:19:05;5.40;;;2.35;;
31594;SDS011;18200;48.726;8.892;2022-08-02T17:23:06;5.73;;;2.20;;
31594;SDS011;18200;48.726;8.892;2022-08-02T17:27:07;5.50;;;2.55;;
31594;SDS011;18200;48.726;8.892;2022-08-02T17:31:08;6.75;;;2.63;;
31594;SDS011;18200;48.726;8.892;2022-08-02T17:35:09;2.88;;;2.15;;
31594;SDS011;18200;48.726;8.892;2022-08-02T17:39:10;3.30;;;2.25;;
31594;SDS011;18200;48.726;8.892;2022-08-02T17:43:11;3.65;;;2.00;;
31594;SDS011;18200;48.726;8.892;2022-08-02T17:47:11;3.90;;;2.40;;
31594;SDS011;18200;48.726;8.892;2022-08-02T17:51:12;3.67;;;2.30;;
31594;SDS011;18200;48.726;8.892;2022-08-02T17:55:12;3.00;;;2.37;;
31594;SDS011;18200;48.726;8.892;2022-08-02T17:59:23;2.63;;;2.42;;
31594;SDS011;18200;48.726;8.892;2022-08-02T18:03:24;4.07;;;2.53;;
31594;SDS011;18200;48.726;8.892;2022-08-02T18:07:25;2.80;;;2.60;;
31594;SDS011;18200;48.726;8.892;2022-08-02T18:11:25;3.45;;;2.45;;
31594;SDS011;18200;48.726;8.892;2022-08-02T18:15:25;4.68;;;2.60;;
31594;SDS011;18200;48.726;8.892;2022-08-02T18:19:26;4.72;;;2.92;;
31594;SDS011;18200;48.726;8.892;2022-08-02T18:23:27;5.17;;;2.73;;
31594;SDS011;18200;48.726;8.892;2022-08-02T18:27:33;8.65;;;3.08;;
31594;SDS011;18200;48.726;8.892;2022-08-02T18:31:47;12.93;;;2.90;;
31594;SDS011;18200;48.726;8.892;2022-08-02T18:35:48;10.05;;;3.35;;
31594;SDS011;18200;48.726;8.892;2022-08-02T18:39:49;4.18;;;3.20;;
31594;SDS011;18200;48.726;8.892;2022-08-02T18:43:49;6.50;;;2.95;;
31594;SDS011;18200;48.726;8.892;2022-08-02T18:47:49;8.07;;;3.65;;
31594;SDS011;18200;48.726;8.892;2022-08-02T18:51:50;4.90;;;2.58;;
31594;SDS011;18200;48.726;8.892;2022-08-02T18:55:50;6.63;;;2.73;;
31594;SDS011;18200;48.726;8.892;2022-08-02T18:59:51;2.97;;;2.63;;
31594;SDS011;18200;48.726;8.892;2022-08-02T19:03:51;5.43;;;2.95;;
31594;SDS011;18200;48.726;8.892;2022-08-02T19:07:52;6.65;;;2.92;;
31594;SDS011;18200;48.726;8.892;2022-08-02T19:11:52;5.15;;;2.60;;
31594;SDS011;18200;48.726;8.892;2022-08-02T19:15:53;6.97;;;3.00;;
31594;SDS011;18200;48.726;8.892;2022-08-02T19:19:53;4.13;;;2.47;;
31594;SDS011;18200;48.726;8.892;2022-08-02T19:23:53;5.43;;;3.25;;
31594;SDS011;18200;48.726;8.892;2022-08-02T19:27:54;5.07;;;3.42;;
31594;SDS011;18200;48.726;8.892;2022-08-02T19:31:55;4.30;;;3.67;;
31594;SDS011;18200;48.726;8.892;2022-08-02T19:35:56;4.82;;;3.58;;
31594;SDS011;18200;48.726;8.892;2022-08-02T19:39:57;6.53;;;3.72;;
31594;SDS011;18200;48.726;8.892;2022-08-02T19:43:57;6.45;;;3.65;;
31594;SDS011;18200;48.726;8.892;2022-08-02T19:47:57;4.53;;;3.85;;
31594;SDS011;18200;48.726;8.892;2022-08-02T19:51:58;9.95;;;3.70;;
31594;SDS011;18200;48.726;8.892;2022-08-02T19:55:58;6.55;;;4.55;;
31594;SDS011;18200;48.726;8.892;2022-08-02T19:59:59;3.92;;;3.50;;
31594;SDS011;18200;48.726;8.892;2022-08-02T20:04:00;7.97;;;4.40;;
31594;SDS011;18200;48.726;8.892;2022-08-02T20:08:00;7.07;;;3.75;;
31594;SDS011;18200;48.726;8.892;2022-08-02T20:12:01;6.90;;;3.53;;
31594;SDS011;18200;48.726;8.892;2022-08-02T20:16:03;7.20;;;3.55;;
31594;SDS011;18200;48.726;8.892;2022-08-02T20:20:05;5.20;;;3.78;;
31594;SDS011;18200;48.726;8.892;2022-08-02T20:24:06;4.70;;;3.60;;
31594;SDS011;18200;48.726;8.892;2022-08-02T20:32:11;5.25;;;3.53;;
31594;SDS011;18200;48.726;8.892;2022-08-02T20:36:13;4.35;;;3.58;;
31594;SDS011;18200;48.726;8.892;2022-08-02T20:40:13;5.85;;;4.05;;
31594;SDS011;18200;48.726;8.892;2022-08-02T20:44:14;5.60;;;3.83;;
31594;SDS011;18200;48.726;8.892;2022-08-02T20:48:18;11.20;;;4.47;;
31594;SDS011;18200;48.726;8.892;2022-08-02T20:52:18;5.95;;;4.15;;
31594;SDS011;18200;48.726;8.892;2022-08-02T20:56:19;4.25;;;3.58;;
31594;SDS011;18200;48.726;8.892;2022-08-02T21:00:19;7.45;;;4.22;;
31594;SDS011;18200;48.726;8.892;2022-08-02T21:04:19;5.43;;;3.80;;
31594;SDS011;18200;48.726;8.892;2022-08-02T21:08:20;6.93;;;4.60;;
31594;SDS011;18200;48.726;8.892;2022-08-02T21:12:20;4.90;;;3.80;;
31594;SDS011;18200;48.726;8.892;2022-08-02T21:16:21;5.90;;;3.97;;
31594;SDS011;18200;48.726;8.892;2022-08-02T21:20:22;5.72;;;4.30;;
31594;SDS011;18200;48.726;8.892;2022-08-02T21:24:22;6.80;;;4.50;;
31594;SDS011;18200;48.726;8.892;2022-08-02T21:28:23;4.97;;;4.25;;
31594;SDS011;18200;48.726;8.892;2022-08-02T21:32:25;6.35;;;4.32;;
31594;SDS011;18200;48.726;8.892;2022-08-02T21:36:26;9.77;;;6.35;;
31594;SDS011;18200;48.726;8.892;2022-08-02T21:40:28;14.30;;;10.32;;
31594;SDS011;18200;48.726;8.892;2022-08-02T21:44:28;13.85;;;11.25;;
31594;SDS011;18200;48.726;8.892;2022-08-02T21:48:28;7.15;;;5.88;;
31594;SDS011;18200;48.726;8.892;2022-08-02T21:52:29;8.40;;;6.00;;
31594;SDS011;18200;48.726;8.892;2022-08-02T21:56:29;7.13;;;5.53;;
31594;SDS011;18200;48.726;8.892;2022-08-02T22:00:30;9.82;;;5.22;;
31594;SDS011;18200;48.726;8.892;2022-08-02T22:04:30;7.47;;;4.78;;
31594;SDS011;18200;48.726;8.892;2022-08-02T22:08:30;7.22;;;4.68;;
31594;SDS011;18200;48.726;8.892;2022-08-02T22:12:31;8.02;;;5.07;;
31594;SDS011;18200;48.726;8.892;2022-08-02T22:16:31;7.28;;;5.40;;
31594;SDS011;18200;48.726;8.892;2022-08-02T22:20:32;17.17;;;10.90;;
31594;SDS011;18200;48.726;8.892;2022-08-02T22:24:32;10.38;;;7.82;;
31594;SDS011;18200;48.726;8.892;2022-08-02T22:28:33;9.32;;;5.78;;
31594;SDS011;18200;48.726;8.892;2022-08-02T22:32:33;7.28;;;5.45;;
31594;SDS011;18200;48.726;8.892;2022-08-02T22:36:52;7.80;;;5.05;;
31594;SDS011;18200;48.726;8.892;2022-08-02T22:40:53;8.93;;;4.78;;
31594;SDS011;18200;48.726;8.892;2022-08-02T22:44:53;6.13;;;4.18;;
31594;SDS011;18200;48.726;8.892;2022-08-02T22:48:53;6.30;;;4.25;;
31594;SDS011;18200;48.726;8.892;2022-08-02T22:52:54;8.25;;;4.43;;
31594;SDS011;18200;48.726;8.892;2022-08-02T22:56:54;9.55;;;4.43;;
31594;SDS011;18200;48.726;8.892;2022-08-02T23:00:55;10.52;;;4.95;;
31594;SDS011;18200;48.726;8.892;2022-08-02T23:04:55;5.45;;;4.43;;
31594;SDS011;18200;48.726;8.892;2022-08-02T23:08:55;5.30;;;4.55;;
31594;SDS011;18200;48.726;8.892;2022-08-02T23:12:56;5.25;;;4.20;;
31594;SDS011;18200;48.726;8.892;2022-08-02T23:16:58;5.55;;;4.38;;
31594;SDS011;18200;48.726;8.892;2022-08-02T23:21:17;6.93;;;4.97;;
31594;SDS011;18200;48.726;8.892;2022-08-02T23:25:17;10.90;;;4.82;;
31594;SDS011;18200;48.726;8.892;2022-08-02T23:29:17;7.10;;;4.78;;
31594;SDS011;18200;48.726;8.892;2022-08-02T23:33:18;6.10;;;4.63;;
31594;SDS011;18200;48.726;8.892;2022-08-02T23:37:18;11.30;;;4.95;;
31594;SDS011;18200;48.726;8.892;2022-08-02T23:41:19;5.88;;;4.35;;
31594;SDS011;18200;48.726;8.892;2022-08-02T23:45:19;6.00;;;4.35;;
31594;SDS011;18200;48.726;8.892;2022-08-02T23:49:20;6.20;;;4.75;;
31594;SDS011;18200;48.726;8.892;2022-08-02T23:53:22;5.15;;;4.32;;
31594;SDS011;18200;48.726;8.892;2022-08-02T23:57:22;6.63;;;5.07;;
